createdAt,value
2022-12-11T00:01:19.432Z,-1.60
2022-12-11T00:03:48.194Z,-1.56
2022-12-11T00:06:19.867Z,-1.54
2022-12-11T00:08:49.265Z,-1.55
2022-12-11T00:11:18.796Z,-1.57
2022-12-11T00:13:47.587Z,-1.55
2022-12-11T00:16:18.170Z,-1.69
2022-12-11T00:18:47.841Z,-1.68
2022-12-11T00:21:16.454Z,-1.63
2022-12-11T00:23:44.980Z,-1.67
2022-12-11T00:26:16.618Z,-1.60
2022-12-11T00:28:46.163Z,-1.66
2022-12-11T00:31:18.987Z,-1.68
2022-12-11T00:33:49.719Z,-1.75
2022-12-11T00:36:20.836Z,-1.70
2022-12-11T00:38:50.305Z,-1.72
2022-12-11T00:41:19.253Z,-1.72
2022-12-11T00:43:48.049Z,-1.75
2022-12-11T00:46:18.311Z,-1.79
2022-12-11T00:48:48.604Z,-1.77
2022-12-11T00:51:17.223Z,-1.74
2022-12-11T00:53:45.905Z,-1.75
2022-12-11T00:56:17.803Z,-1.71
2022-12-11T00:58:46.532Z,-1.81
2022-12-11T01:01:19.525Z,-1.84
2022-12-11T01:03:48.646Z,-1.87
2022-12-11T01:06:19.262Z,-1.88
2022-12-11T01:08:48.774Z,-1.79
2022-12-11T01:11:18.391Z,-1.76
2022-12-11T01:13:46.993Z,-1.72
2022-12-11T01:16:17.487Z,-1.72
2022-12-11T01:18:46.143Z,-1.78
2022-12-11T01:21:15.417Z,-1.82
2022-12-11T01:23:44.398Z,-1.86
2022-12-11T01:26:16.416Z,-1.82
2022-12-11T01:28:46.291Z,-1.79
2022-12-11T01:31:18.643Z,-1.79
2022-12-11T01:33:47.295Z,-1.66
2022-12-11T01:36:18.808Z,-1.66
2022-12-11T01:38:48.603Z,-1.67
2022-12-11T01:41:18.102Z,-1.70
2022-12-11T01:44:02.984Z,-1.71
2022-12-11T01:46:35.305Z,-1.79
2022-12-11T01:49:10.145Z,-1.78
2022-12-11T01:51:43.854Z,-1.81
2022-12-11T01:54:18.444Z,-1.74
2022-12-11T01:56:51.127Z,-1.87
2022-12-11T01:59:25.608Z,-1.98
2022-12-11T02:02:03.757Z,-2.02
2022-12-11T02:04:34.321Z,-2.15
2022-12-11T02:07:03.614Z,-2.24
2022-12-11T02:09:36.283Z,-2.29
2022-12-11T02:12:16.873Z,-2.37
2022-12-11T02:14:56.504Z,-2.47
2022-12-11T02:17:36.704Z,-2.54
2022-12-11T02:20:16.155Z,-2.66
2022-12-11T02:23:21.291Z,-2.70
2022-12-11T02:26:04.274Z,-2.69
2022-12-11T02:28:39.834Z,-2.73
2022-12-11T02:31:17.217Z,-2.82
2022-12-11T02:33:53.935Z,-2.80
2022-12-11T02:36:29.224Z,-2.80
2022-12-11T02:39:02.672Z,-2.81
2022-12-11T02:41:34.853Z,-2.78
2022-12-11T02:44:06.230Z,-2.84
2022-12-11T02:46:37.779Z,-2.86
2022-12-11T02:49:10.436Z,-2.91
2022-12-11T02:51:42.861Z,-2.94
2022-12-11T02:54:17.719Z,-2.95
2022-12-11T02:56:52.254Z,-3.01
2022-12-11T02:59:31.666Z,-3.09
2022-12-11T03:02:00.485Z,-3.19
2022-12-11T03:04:30.061Z,-3.21
2022-12-11T03:07:11.977Z,-3.24
2022-12-11T03:09:41.053Z,-3.22
2022-12-11T03:12:15.256Z,-3.18
2022-12-11T03:14:46.366Z,-3.17
2022-12-11T03:17:20.253Z,-3.11
2022-12-11T03:20:01.403Z,-3.06
2022-12-11T03:22:38.871Z,-3.02
2022-12-11T03:25:11.828Z,-2.93
2022-12-11T03:27:51.756Z,-2.92
2022-12-11T03:30:26.961Z,-3.00
2022-12-11T03:33:03.511Z,-2.95
2022-12-11T03:35:39.324Z,-2.93
2022-12-11T03:38:15.083Z,-2.90
2022-12-11T03:40:48.959Z,-2.92
2022-12-11T03:43:19.082Z,-2.94
2022-12-11T03:45:53.099Z,-3.01
2022-12-11T03:48:26.536Z,-3.06
2022-12-11T03:50:56.258Z,-3.12
2022-12-11T03:53:27.852Z,-3.18
2022-12-11T03:56:00.105Z,-3.19
2022-12-11T03:58:28.515Z,-3.30
2022-12-11T04:00:58.239Z,-3.39
2022-12-11T04:03:26.664Z,-3.61
2022-12-11T04:05:57.920Z,-3.71
2022-12-11T04:08:26.271Z,-3.83
2022-12-11T04:11:15.061Z,-3.89
2022-12-11T04:13:43.832Z,-3.99
2022-12-11T04:16:12.674Z,-4.05
2022-12-11T04:18:58.672Z,-4.10
2022-12-11T04:21:44.640Z,-4.04
2022-12-11T04:24:18.842Z,-4.02
2022-12-11T04:26:48.631Z,-4.01
2022-12-11T04:29:17.267Z,-3.98
2022-12-11T04:31:47.352Z,-3.89
2022-12-11T04:34:15.643Z,-3.88
2022-12-11T04:36:44.700Z,-3.94
2022-12-11T04:39:13.153Z,-3.99
2022-12-11T04:41:42.023Z,-3.98
2022-12-11T04:44:10.749Z,-3.90
2022-12-11T04:46:39.395Z,-3.95
2022-12-11T04:49:10.060Z,-4.03
2022-12-11T04:51:38.341Z,-4.01
2022-12-11T04:54:06.965Z,-4.01
2022-12-11T04:56:35.237Z,-4.03
2022-12-11T04:59:03.540Z,-4.14
2022-12-11T05:01:32.027Z,-4.26
2022-12-11T05:04:01.137Z,-4.26
2022-12-11T05:06:30.711Z,-4.20
2022-12-11T05:08:59.008Z,-4.13
2022-12-11T05:11:28.103Z,-4.12
2022-12-11T05:13:56.461Z,-4.16
2022-12-11T05:16:24.763Z,-4.19
2022-12-11T05:18:53.153Z,-4.13
2022-12-11T05:21:21.412Z,-4.15
2022-12-11T05:23:51.102Z,-4.21
2022-12-11T05:26:21.804Z,-4.23
2022-12-11T05:28:54.588Z,-4.21
2022-12-11T05:31:25.248Z,-4.24
2022-12-11T05:33:55.209Z,-4.22
2022-12-11T05:36:26.274Z,-4.27
2022-12-11T05:38:56.893Z,-4.29
2022-12-11T05:41:28.547Z,-4.31
2022-12-11T05:43:57.411Z,-4.33
2022-12-11T05:46:28.171Z,-4.34
2022-12-11T05:49:01.438Z,-4.39
2022-12-11T05:51:31.316Z,-4.39
2022-12-11T05:54:01.694Z,-4.48
2022-12-11T05:56:32.720Z,-4.54
2022-12-11T05:59:03.028Z,-4.58
2022-12-11T06:01:34.829Z,-4.80
2022-12-11T06:04:04.337Z,-4.97
2022-12-11T06:06:33.955Z,-5.08
2022-12-11T06:09:06.313Z,-4.98
2022-12-11T06:11:35.930Z,-4.90
2022-12-11T06:14:05.281Z,-5.07
2022-12-11T06:16:34.254Z,-5.16
2022-12-11T06:19:02.994Z,-5.17
2022-12-11T06:21:33.846Z,-5.31
2022-12-11T06:24:05.670Z,-5.40
2022-12-11T06:26:34.195Z,-5.49
2022-12-11T06:29:05.285Z,-5.52
2022-12-11T06:31:37.293Z,-5.57
2022-12-11T06:34:06.011Z,-5.67
2022-12-11T06:36:34.640Z,-5.74
2022-12-11T06:39:05.211Z,-5.84
2022-12-11T06:41:33.562Z,-5.95
2022-12-11T06:44:02.331Z,-5.91
2022-12-11T06:46:30.697Z,-5.99
2022-12-11T06:48:59.010Z,-6.13
2022-12-11T06:51:27.304Z,-6.18
2022-12-11T06:53:57.824Z,-6.13
2022-12-11T06:56:27.535Z,-6.13
2022-12-11T06:58:57.133Z,-6.14
2022-12-11T07:01:28.257Z,-6.18
2022-12-11T07:03:58.902Z,-6.21
2022-12-11T07:06:29.430Z,-6.28
2022-12-11T07:08:58.272Z,-6.32
2022-12-11T07:11:28.074Z,-6.30
2022-12-11T07:14:00.043Z,-6.21
2022-12-11T07:16:29.010Z,-6.13
2022-12-11T07:18:57.681Z,-6.13
2022-12-11T07:21:25.978Z,-6.11
2022-12-11T07:23:54.380Z,-6.01
2022-12-11T07:26:23.524Z,-5.90
2022-12-11T07:28:53.275Z,-5.80
2022-12-11T07:31:25.582Z,-5.77
2022-12-11T07:33:55.809Z,-5.83
2022-12-11T07:36:25.019Z,-5.78
2022-12-11T07:38:53.863Z,-5.55
2022-12-11T07:41:23.156Z,-5.29
2022-12-11T07:43:57.241Z,-5.17
2022-12-11T07:46:29.188Z,-5.12
2022-12-11T07:48:57.866Z,-5.00
2022-12-11T07:51:28.671Z,-4.79
2022-12-11T07:54:01.996Z,-4.58
2022-12-11T07:56:32.055Z,-4.50
2022-12-11T07:59:03.205Z,-4.51
2022-12-11T08:01:35.632Z,-4.41
2022-12-11T08:04:05.728Z,-4.36
2022-12-11T08:06:37.173Z,-4.33
2022-12-11T08:09:09.251Z,-4.22
2022-12-11T08:11:38.228Z,-4.07
2022-12-11T08:14:09.226Z,-3.88
2022-12-11T08:16:38.899Z,-3.80
2022-12-11T08:19:07.270Z,-3.76
2022-12-11T08:21:35.583Z,-3.65
2022-12-11T08:24:04.724Z,-3.46
2022-12-11T08:26:34.058Z,-3.37
2022-12-11T08:29:03.287Z,-3.41
2022-12-11T08:31:33.184Z,-3.42
2022-12-11T08:34:01.913Z,-3.49
2022-12-11T08:36:30.565Z,-3.44
2022-12-11T08:38:59.477Z,-3.42
2022-12-11T08:41:30.712Z,-3.38
2022-12-11T08:44:01.700Z,-3.26
2022-12-11T08:46:33.699Z,-3.09
2022-12-11T08:49:02.082Z,-3.05
2022-12-11T08:51:32.060Z,-2.97
2022-12-11T08:54:02.527Z,-2.88
2022-12-11T08:56:31.451Z,-2.79
2022-12-11T08:59:01.925Z,-2.80
2022-12-11T09:01:32.753Z,-2.60
2022-12-11T09:04:01.096Z,-2.55
2022-12-11T09:06:31.272Z,-2.48
2022-12-11T09:09:02.431Z,-2.45
2022-12-11T09:11:34.607Z,-2.37
2022-12-11T09:14:07.566Z,-2.36
2022-12-11T09:16:41.231Z,-2.38
2022-12-11T09:19:13.945Z,-2.27
2022-12-11T09:21:43.918Z,-2.28
2022-12-11T09:24:15.140Z,-2.28
2022-12-11T09:26:43.797Z,-2.30
2022-12-11T09:29:13.422Z,-2.42
2022-12-11T09:31:43.638Z,-2.38
2022-12-11T09:34:14.981Z,-2.30
2022-12-11T09:36:45.290Z,-2.34
2022-12-11T09:39:17.359Z,-2.33
2022-12-11T09:41:57.310Z,-2.26
2022-12-11T09:44:42.235Z,-2.22
2022-12-11T09:47:24.170Z,-2.40
2022-12-11T09:50:03.741Z,-2.27
2022-12-11T09:52:38.917Z,-2.26
2022-12-11T09:55:17.711Z,-2.13
2022-12-11T09:58:02.639Z,-1.95
2022-12-11T10:00:40.450Z,-1.81
2022-12-11T10:03:50.421Z,-1.80
2022-12-11T10:06:26.053Z,-1.87
2022-12-11T10:09:11.537Z,-1.89
2022-12-11T10:12:06.292Z,-1.89
2022-12-11T10:14:53.592Z,-1.86
2022-12-11T10:17:28.628Z,-1.99
2022-12-11T10:20:05.330Z,-2.06
2022-12-11T10:22:35.814Z,-2.11
2022-12-11T10:25:23.405Z,-2.01
2022-12-11T10:27:51.984Z,-2.02
2022-12-11T10:30:28.416Z,-2.01
2022-12-11T10:33:15.878Z,-2.10
2022-12-11T10:35:51.206Z,-2.04
2022-12-11T10:38:26.420Z,-2.05
2022-12-11T10:40:59.831Z,-1.95
2022-12-11T10:43:36.652Z,-2.07
2022-12-11T10:46:07.154Z,-2.04
2022-12-11T10:48:35.580Z,-2.20
2022-12-11T10:51:08.122Z,-2.14
2022-12-11T10:53:37.241Z,-2.18
2022-12-11T10:56:06.210Z,-2.05
2022-12-11T10:58:41.317Z,-2.05
2022-12-11T11:01:16.155Z,-1.87
2022-12-11T11:03:58.195Z,-1.90
2022-12-11T11:06:28.994Z,-1.94
2022-12-11T11:09:00.482Z,-1.92
2022-12-11T11:11:33.968Z,-1.80
2022-12-11T11:14:16.376Z,-1.54
2022-12-11T11:16:48.623Z,-1.64
2022-12-11T11:19:23.714Z,-1.98
2022-12-11T11:21:57.503Z,-1.82
2022-12-11T11:24:31.961Z,-1.82
2022-12-11T11:27:16.484Z,-1.61
2022-12-11T11:29:50.276Z,-0.84
2022-12-11T11:32:27.909Z,-0.65
2022-12-11T11:35:18.433Z,-0.54
2022-12-11T11:37:58.896Z,-0.60
2022-12-11T11:40:30.838Z,-0.83
2022-12-11T11:43:18.294Z,-1.24
2022-12-11T11:45:56.625Z,-1.73
2022-12-11T11:48:46.904Z,-2.06
2022-12-11T11:51:34.584Z,-2.27
2022-12-11T11:54:22.720Z,-2.63
2022-12-11T11:56:54.988Z,-2.61
2022-12-11T11:59:33.007Z,-2.69
2022-12-11T12:02:01.781Z,-2.52
2022-12-11T12:04:36.891Z,-2.37
2022-12-11T12:07:23.290Z,-2.30
2022-12-11T12:10:09.612Z,-2.15
2022-12-11T12:12:50.466Z,-2.15
2022-12-11T12:15:39.925Z,-2.15
2022-12-11T12:18:18.623Z,-2.11
2022-12-11T12:20:56.687Z,-2.11
2022-12-11T12:23:45.939Z,-2.14
2022-12-11T12:26:26.975Z,-1.61
2022-12-11T12:29:14.665Z,-0.97
2022-12-11T12:32:02.165Z,-0.54
2022-12-11T12:34:49.906Z,0.54
2022-12-11T12:37:38.091Z,1.58
2022-12-11T12:40:21.875Z,2.50
2022-12-11T12:43:05.640Z,2.98
2022-12-11T12:45:47.087Z,3.83
2022-12-11T12:48:15.410Z,4.37
2022-12-11T12:50:48.768Z,3.82
2022-12-11T12:53:21.729Z,3.63
2022-12-11T12:55:51.809Z,3.37
2022-12-11T12:58:41.074Z,3.85
2022-12-11T13:01:18.078Z,1.60
2022-12-11T13:03:59.117Z,0.10
2022-12-11T13:06:38.913Z,-0.88
2022-12-11T13:09:22.680Z,-1.18
2022-12-11T13:11:57.713Z,-1.39
2022-12-11T13:14:34.220Z,-1.77
2022-12-11T13:17:28.395Z,-1.98
2022-12-11T13:20:17.962Z,-1.98
2022-12-11T13:22:57.959Z,-1.90
2022-12-11T13:25:30.796Z,-1.39
2022-12-11T13:28:20.727Z,-0.54
2022-12-11T13:31:29.119Z,-1.01
2022-12-11T13:34:03.925Z,0.09
2022-12-11T13:36:35.474Z,1.70
2022-12-11T13:39:06.802Z,2.04
2022-12-11T13:41:39.205Z,0.73
2022-12-11T13:44:09.309Z,0.02
2022-12-11T13:46:40.961Z,-0.70
2022-12-11T13:49:23.993Z,-1.31
2022-12-11T13:51:58.834Z,-1.52
2022-12-11T13:54:29.683Z,-1.50
2022-12-11T13:57:03.803Z,-1.54
2022-12-11T13:59:35.347Z,-1.34
2022-12-11T14:02:19.197Z,-1.11
2022-12-11T14:04:52.248Z,-1.06
2022-12-11T14:07:27.897Z,-1.08
2022-12-11T14:10:02.902Z,-0.78
2022-12-11T14:12:34.288Z,0.57
2022-12-11T14:15:06.157Z,1.30
2022-12-11T14:17:37.483Z,0.67
2022-12-11T14:20:15.818Z,-0.11
2022-12-11T14:22:44.557Z,-0.58
2022-12-11T14:25:23.923Z,-0.72
2022-12-11T14:27:54.748Z,-1.14
2022-12-11T14:30:26.623Z,-1.56
2022-12-11T14:33:00.976Z,-1.78
2022-12-11T14:35:38.665Z,-1.99
2022-12-11T14:38:21.293Z,-2.37
2022-12-11T14:40:56.178Z,-2.54
2022-12-11T14:43:34.598Z,-2.55
2022-12-11T14:46:10.067Z,-2.53
2022-12-11T14:48:49.672Z,-2.69
2022-12-11T14:51:20.859Z,-2.72
2022-12-11T14:53:53.555Z,-2.67
2022-12-11T14:56:26.218Z,-2.64
2022-12-11T14:58:58.134Z,-2.60
2022-12-11T15:01:30.595Z,-2.54
2022-12-11T15:04:23.379Z,-2.51
2022-12-11T15:06:53.555Z,-2.49
2022-12-11T15:09:26.531Z,-2.51
2022-12-11T15:11:58.371Z,-2.55
2022-12-11T15:14:27.870Z,-2.67
2022-12-11T15:16:58.639Z,-2.54
2022-12-11T15:19:34.239Z,-2.57
2022-12-11T15:22:05.685Z,-2.51
2022-12-11T15:24:41.737Z,-2.46
2022-12-11T15:27:26.855Z,-2.40
2022-12-11T15:29:56.807Z,-2.45
2022-12-11T15:32:26.258Z,-2.38
2022-12-11T15:34:58.354Z,-2.60
2022-12-11T15:37:29.305Z,-2.64
2022-12-11T15:40:00.011Z,-2.53
2022-12-11T15:42:32.606Z,-2.60
2022-12-11T15:45:01.874Z,-2.62
2022-12-11T15:47:32.463Z,-2.60
2022-12-11T15:50:09.511Z,-2.71
2022-12-11T15:52:38.228Z,-2.75
2022-12-11T15:55:08.055Z,-2.80
2022-12-11T15:57:37.393Z,-2.71
2022-12-11T16:00:07.588Z,-2.82
2022-12-11T16:02:36.313Z,-2.94
2022-12-11T16:05:06.785Z,-3.08
2022-12-11T16:07:35.687Z,-3.18
2022-12-11T16:10:04.150Z,-3.26
2022-12-11T16:12:32.604Z,-3.27
2022-12-11T16:15:01.337Z,-3.25
2022-12-11T16:17:31.413Z,-3.23
2022-12-11T16:20:00.030Z,-3.19
2022-12-11T16:22:29.859Z,-3.16
2022-12-11T16:24:58.228Z,-3.11
2022-12-11T16:27:27.170Z,-2.99
2022-12-11T16:29:55.861Z,-2.92
2022-12-11T16:32:24.552Z,-2.85
2022-12-11T16:34:54.081Z,-2.93
2022-12-11T16:37:22.982Z,-2.96
2022-12-11T16:39:52.722Z,-3.14
2022-12-11T16:42:21.356Z,-3.14
2022-12-11T16:44:50.003Z,-3.21
2022-12-11T16:47:18.604Z,-3.23
2022-12-11T16:49:46.888Z,-3.24
2022-12-11T16:52:20.538Z,-3.17
2022-12-11T16:54:52.166Z,-3.27
2022-12-11T16:57:21.701Z,-3.36
2022-12-11T16:59:50.310Z,-3.40
2022-12-11T17:02:19.358Z,-3.55
2022-12-11T17:04:53.688Z,-3.60
2022-12-11T17:07:22.663Z,-3.77
2022-12-11T17:09:52.345Z,-3.76
2022-12-11T17:12:25.861Z,-3.68
2022-12-11T17:14:55.009Z,-3.64
2022-12-11T17:17:23.834Z,-3.76
2022-12-11T17:19:52.228Z,-3.84
2022-12-11T17:22:21.266Z,-3.92
2022-12-11T17:24:49.674Z,-3.96
2022-12-11T17:27:19.412Z,-4.01
2022-12-11T17:29:49.491Z,-4.03
2022-12-11T17:32:18.846Z,-4.08
2022-12-11T17:34:49.155Z,-4.17
2022-12-11T17:37:18.347Z,-4.15
2022-12-11T17:39:47.537Z,-4.11
2022-12-11T17:42:16.633Z,-4.17
2022-12-11T17:44:46.548Z,-4.20
2022-12-11T17:47:15.993Z,-4.20
2022-12-11T17:49:44.430Z,-4.18
2022-12-11T17:52:12.710Z,-4.21
2022-12-11T17:54:42.165Z,-4.22
2022-12-11T17:57:10.487Z,-4.17
2022-12-11T17:59:39.195Z,-4.17
2022-12-11T18:02:10.514Z,-4.21
2022-12-11T18:04:39.560Z,-4.18
2022-12-11T18:07:08.250Z,-4.18
2022-12-11T18:09:36.860Z,-4.08
2022-12-11T18:12:05.954Z,-4.11
2022-12-11T18:14:34.695Z,-4.15
2022-12-11T18:17:03.586Z,-4.14
2022-12-11T18:19:33.647Z,-4.19
2022-12-11T18:22:02.296Z,-4.17
2022-12-11T18:24:32.638Z,-4.24
2022-12-11T18:27:02.626Z,-4.17
2022-12-11T18:29:31.008Z,-4.17
2022-12-11T18:31:59.880Z,-4.22
2022-12-11T18:34:28.546Z,-4.20
2022-12-11T18:36:58.386Z,-4.15
2022-12-11T18:39:27.264Z,-4.05
2022-12-11T18:42:30.571Z,-4.01
2022-12-11T18:44:45.522Z,-3.95
2022-12-11T18:47:14.211Z,-3.98
2022-12-11T18:49:42.914Z,-3.92
2022-12-11T18:52:12.960Z,-3.82
2022-12-11T18:54:41.963Z,-3.79
2022-12-11T18:57:10.632Z,-3.74
2022-12-11T18:59:40.928Z,-3.79
2022-12-11T19:02:11.460Z,-3.87
2022-12-11T19:04:39.897Z,-3.90
2022-12-11T19:07:08.625Z,-3.78
2022-12-11T19:09:40.612Z,-3.78
2022-12-11T19:12:12.220Z,-3.83
2022-12-11T19:14:41.517Z,-3.80
2022-12-11T19:17:10.276Z,-3.83
2022-12-11T19:19:39.553Z,-3.86
2022-12-11T19:22:10.542Z,-3.75
2022-12-11T19:24:41.980Z,-3.75
2022-12-11T19:27:13.666Z,-3.76
2022-12-11T19:29:42.740Z,-3.79
2022-12-11T19:32:11.992Z,-3.80
2022-12-11T19:34:41.282Z,-3.82
2022-12-11T19:37:09.595Z,-3.78
2022-12-11T19:39:41.988Z,-3.84
2022-12-11T19:42:10.386Z,-3.78
2022-12-11T19:44:39.044Z,-3.75
2022-12-11T19:47:07.584Z,-3.67
2022-12-11T19:49:36.312Z,-3.65
2022-12-11T19:52:05.486Z,-3.56
2022-12-11T19:54:34.415Z,-3.62
2022-12-11T19:57:04.219Z,-3.64
2022-12-11T19:59:33.320Z,-3.67
2022-12-11T20:02:04.155Z,-3.61
2022-12-11T20:04:32.838Z,-3.67
2022-12-11T20:07:01.345Z,-3.69
2022-12-11T20:09:30.219Z,-3.75
2022-12-11T20:11:58.502Z,-3.79
2022-12-11T20:14:29.192Z,-3.85
2022-12-11T20:17:14.745Z,-3.93
2022-12-11T20:19:44.005Z,-3.86
2022-12-11T20:22:12.844Z,-3.79
2022-12-11T20:24:42.723Z,-3.72
2022-12-11T20:27:12.454Z,-3.76
2022-12-11T20:29:42.912Z,-3.76
2022-12-11T20:32:12.415Z,-3.67
2022-12-11T20:34:41.313Z,-3.71
2022-12-11T20:37:10.223Z,-3.74
2022-12-11T20:39:38.872Z,-3.76
2022-12-11T20:42:09.630Z,-3.84
2022-12-11T20:44:38.334Z,-3.94
2022-12-11T20:47:08.641Z,-3.96
2022-12-11T20:49:37.713Z,-4.03
2022-12-11T20:52:06.590Z,-4.02
2022-12-11T20:54:35.631Z,-3.99
2022-12-11T20:57:05.181Z,-3.96
2022-12-11T20:59:33.770Z,-3.95
2022-12-11T21:02:02.648Z,-3.95
2022-12-11T21:04:32.856Z,-3.93
2022-12-11T21:07:02.076Z,-3.93
2022-12-11T21:09:30.821Z,-3.96
2022-12-11T21:12:00.917Z,-3.97
2022-12-11T21:14:30.593Z,-3.97
2022-12-11T21:17:00.086Z,-3.95
2022-12-11T21:19:29.181Z,-4.02
2022-12-11T21:21:59.523Z,-4.03
2022-12-11T21:24:30.427Z,-3.99
2022-12-11T21:26:59.776Z,-3.92
2022-12-11T21:29:39.340Z,-3.96
2022-12-11T21:32:08.435Z,-3.93
2022-12-11T21:34:37.832Z,-3.85
2022-12-11T21:37:08.118Z,-3.89
2022-12-11T21:39:39.519Z,-3.87
2022-12-11T21:42:08.762Z,-3.88
2022-12-11T21:47:27.666Z,-3.75
2022-12-11T21:49:56.136Z,-3.72
2022-12-11T21:52:27.195Z,-3.73
2022-12-11T21:54:56.600Z,-3.78
2022-12-11T21:57:26.798Z,-3.85
2022-12-11T21:59:55.530Z,-3.90
2022-12-11T22:02:24.406Z,-3.74
2022-12-11T22:04:53.115Z,-3.72
2022-12-11T22:07:21.557Z,-3.69
2022-12-11T22:09:51.358Z,-3.76
2022-12-11T22:12:25.714Z,-3.78
2022-12-11T22:14:55.246Z,-3.73
2022-12-11T22:17:24.195Z,-3.84
2022-12-11T22:19:52.799Z,-3.79
2022-12-11T22:22:21.556Z,-3.66
2022-12-11T22:24:51.497Z,-3.75
2022-12-11T22:27:23.709Z,-3.86
2022-12-11T22:29:52.593Z,-3.80
2022-12-11T22:32:21.031Z,-3.86
2022-12-11T22:34:49.395Z,-3.83
2022-12-11T22:37:17.853Z,-3.86
2022-12-11T22:39:46.497Z,-3.88
2022-12-11T22:42:16.239Z,-3.93
2022-12-11T22:44:44.963Z,-3.90
2022-12-11T22:47:14.101Z,-3.84
2022-12-11T22:49:42.755Z,-3.82
2022-12-11T22:52:11.430Z,-3.79
2022-12-11T22:54:40.423Z,-3.80
2022-12-11T22:57:09.302Z,-3.90
2022-12-11T22:59:39.476Z,-3.94
2022-12-11T23:02:08.420Z,-3.95
2022-12-11T23:04:36.978Z,-3.90
2022-12-11T23:07:06.008Z,-3.93
2022-12-11T23:09:35.116Z,-3.87
2022-12-11T23:12:03.828Z,-3.92
2022-12-11T23:14:32.559Z,-3.94
2022-12-11T23:17:02.336Z,-3.87
2022-12-11T23:19:30.765Z,-3.82
2022-12-11T23:21:59.088Z,-3.69
2022-12-11T23:24:27.952Z,-3.63
2022-12-11T23:26:56.262Z,-3.65
2022-12-11T23:29:25.160Z,-3.68
2022-12-11T23:31:53.492Z,-3.66
2022-12-11T23:34:23.391Z,-3.77
2022-12-11T23:36:52.185Z,-3.61
2022-12-11T23:39:20.854Z,-3.55
2022-12-11T23:41:49.512Z,-3.49
2022-12-11T23:44:17.845Z,-3.63
2022-12-11T23:46:46.583Z,-3.67
2022-12-11T23:49:14.919Z,-3.60
2022-12-11T23:51:44.718Z,-3.60
2022-12-11T23:54:13.421Z,-3.52
2022-12-11T23:56:41.804Z,-3.53
2022-12-11T23:59:13.598Z,-3.52
